Time;durP1;ratioP1;P1;durP2;ratioP2;P2;SDS_P1;SDS_P2;PMS_P1;PMS_P2;Temp;Humidity;BMP_temperature;BMP_pressure;BME280_temperature;BME280_humidity;BME280_pressure;Samples;Min_cycle;Max_cycle;Signal;HPM_P1;HPM_P2
2023/01/12 00:02:04;;;;;;;8.05;2.15;;;9.50;98.60;;;;;;5056856;28;20486;-76
2023/01/12 00:04:30;;;;;;;6.63;2.05;;;9.40;98.80;;;;;;5051700;28;20025;-76
2023/01/12 00:06:56;;;;;;;7.35;2.22;;;9.40;98.90;;;;;;5056907;28;20082;-76
2023/01/12 00:09:22;;;;;;;8.50;1.98;;;9.50;98.80;;;;;;5040576;28;20022;-76
2023/01/12 00:11:48;;;;;;;11.05;2.63;;;9.50;98.90;;;;;;5050471;28;20036;-75
2023/01/12 00:14:14;;;;;;;8.63;2.20;;;9.50;98.80;;;;;;5013794;28;20479;-75
2023/01/12 00:16:40;;;;;;;10.85;2.00;;;9.50;98.80;;;;;;5058053;28;20021;-76
2023/01/12 00:19:17;;;;;;;12.43;2.63;;;9.50;98.80;;;;;;5039959;28;20032;-74
2023/01/12 00:24:43;;;;;;;10.90;2.47;;;9.50;98.90;;;;;;5060681;28;20099;-76
2023/01/12 00:27:11;;;;;;;7.90;2.42;;;9.50;98.90;;;;;;5039611;28;20052;-76
2023/01/12 00:29:37;;;;;;;13.38;3.10;;;9.50;99.00;;;;;;5031169;28;20033;-76
2023/01/12 00:32:04;;;;;;;10.43;3.00;;;9.50;99.10;;;;;;5039862;28;20029;-76
2023/01/12 00:34:40;;;;;;;9.68;2.80;;;9.50;99.10;;;;;;5058920;28;20056;-76
2023/01/12 00:37:05;;;;;;;13.43;3.85;;;9.40;99.50;;;;;;5041897;28;20033;-76
2023/01/12 00:39:31;;;;;;;13.52;3.38;;;9.50;99.30;;;;;;5057435;28;20020;-75
2023/01/12 00:47:25;;;;;;;20.08;4.75;;;9.50;99.60;;;;;;5047426;28;20609;-76
2023/01/12 00:49:52;;;;;;;15.45;4.82;;;9.50;99.50;;;;;;5041137;28;20100;-76
2023/01/12 00:52:18;;;;;;;14.65;4.05;;;9.50;99.70;;;;;;5026722;28;20038;-76
2023/01/12 00:54:44;;;;;;;17.73;4.38;;;9.70;99.20;;;;;;5044982;28;20509;-75
2023/01/12 00:57:12;;;;;;;18.33;4.90;;;9.60;99.40;;;;;;5050819;28;20108;-76
2023/01/12 00:59:38;;;;;;;24.90;5.75;;;9.60;99.30;;;;;;5033071;28;20017;-75
2023/01/12 01:02:04;;;;;;;16.10;4.93;;;9.60;99.60;;;;;;5043023;28;20043;-76
2023/01/12 01:04:33;;;;;;;24.42;5.53;;;9.60;99.90;;;;;;5043638;28;20561;-75
2023/01/12 01:07:00;;;;;;;16.73;4.67;;;9.60;99.90;;;;;;5045061;28;20030;-76
2023/01/12 01:09:27;;;;;;;17.38;5.10;;;9.70;99.70;;;;;;5063582;28;20302;-75
2023/01/12 01:11:53;;;;;;;21.40;5.80;;;9.70;99.90;;;;;;5022517;28;20427;-75
2023/01/12 01:14:19;;;;;;;21.70;6.20;;;9.70;99.90;;;;;;5048663;28;20051;-75
2023/01/12 01:16:44;;;;;;;22.17;6.30;;;9.70;99.90;;;;;;5031630;28;20048;-76
2023/01/12 01:19:10;;;;;;;20.45;6.57;;;9.70;99.90;;;;;;5044873;28;20041;-75
2023/01/12 01:21:35;;;;;;;24.67;6.47;;;9.60;99.90;;;;;;5043967;28;20120;-75
2023/01/12 01:24:01;;;;;;;25.25;7.43;;;9.60;99.90;;;;;;5046842;28;20079;-73
2023/01/12 01:26:29;;;;;;;24.88;6.95;;;9.60;99.90;;;;;;5044768;28;20045;-75
2023/01/12 01:28:55;;;;;;;20.55;7.20;;;9.60;99.90;;;;;;5045160;28;20017;-76
2023/01/12 01:31:23;;;;;;;22.10;5.80;;;9.60;99.90;;;;;;5040255;28;20028;-76
2023/01/12 01:33:49;;;;;;;23.52;7.28;;;9.70;99.90;;;;;;5048225;28;20039;-76
2023/01/12 01:36:17;;;;;;;32.47;7.43;;;9.60;99.90;;;;;;5045011;28;20128;-76
2023/01/12 01:38:44;;;;;;;22.13;6.43;;;9.70;99.90;;;;;;5045219;28;20026;-76
2023/01/12 01:41:26;;;;;;;17.80;5.50;;;9.60;99.90;;;;;;5063418;28;20031;-76
2023/01/12 01:43:58;;;;;;;23.60;6.75;;;9.60;99.90;;;;;;5037998;28;20100;-75
2023/01/12 01:46:32;;;;;;;25.17;7.38;;;9.60;99.90;;;;;;5036508;28;20480;-76
2023/01/12 01:49:08;;;;;;;21.25;6.00;;;9.70;99.90;;;;;;5042494;28;20029;-74
2023/01/12 01:51:34;;;;;;;24.70;7.05;;;9.70;99.90;;;;;;5060134;28;20059;-74
2023/01/12 01:54:03;;;;;;;19.30;6.22;;;9.70;99.90;;;;;;5046788;28;20033;-75
2023/01/12 01:56:30;;;;;;;19.90;5.50;;;9.70;99.90;;;;;;5057186;28;20029;-75
2023/01/12 01:59:16;;;;;;;19.25;5.60;;;9.70;99.90;;;;;;5048997;28;20467;-75
2023/01/12 02:01:43;;;;;;;23.15;5.85;;;9.70;99.90;;;;;;5036526;28;20095;-75
2023/01/12 02:04:09;;;;;;;14.85;4.82;;;9.70;99.90;;;;;;5045898;28;20111;-77
2023/01/12 02:06:34;;;;;;;21.20;7.38;;;9.70;99.90;;;;;;5054687;28;20036;-75
2023/01/12 02:09:09;;;;;;;25.67;5.82;;;9.70;99.90;;;;;;5044728;28;20029;-75
2023/01/12 02:17:19;;;;;;;13.07;3.50;;;9.80;99.90;;;;;;5060530;28;20051;-75
2023/01/12 02:20:09;;;;;;;16.85;4.88;;;9.80;99.90;;;;;;5035058;28;20029;-76
2023/01/12 02:22:44;;;;;;;14.25;4.15;;;9.70;99.90;;;;;;5055724;28;20037;-73
2023/01/12 02:25:35;;;;;;;18.48;4.68;;;9.60;99.90;;;;;;5028202;28;20393;-75
2023/01/12 02:28:36;;;;;;;14.02;4.22;;;9.60;99.90;;;;;;5033265;28;20029;-75
2023/01/12 02:31:23;;;;;;;15.68;3.75;;;9.60;99.90;;;;;;5053185;28;20032;-76
2023/01/12 02:34:01;;;;;;;14.23;4.28;;;9.70;99.90;;;;;;5037337;28;20117;-73
2023/01/12 02:36:36;;;;;;;12.27;3.45;;;9.70;99.90;;;;;;5052858;28;20033;-76
2023/01/12 02:39:31;;;;;;;11.23;3.03;;;9.70;99.90;;;;;;5043282;28;20045;-74
2023/01/12 02:45:05;;;;;;;12.07;3.83;;;9.70;99.90;;;;;;5031337;28;20588;-74
2023/01/12 02:47:50;;;;;;;17.45;3.28;;;9.70;99.90;;;;;;5041846;28;20506;-75
2023/01/12 02:50:23;;;;;;;13.93;4.03;;;9.70;99.90;;;;;;5021818;28;20079;-75
2023/01/12 02:52:56;;;;;;;11.90;3.05;;;9.80;99.90;;;;;;5060144;28;20029;-76
2023/01/12 02:55:25;;;;;;;15.27;4.35;;;9.80;99.90;;;;;;5054912;28;20071;-74
2023/01/12 02:57:53;;;;;;;10.15;2.78;;;9.80;99.90;;;;;;5045262;28;20441;-75
2023/01/12 03:00:18;;;;;;;18.05;3.40;;;9.80;99.90;;;;;;5033566;28;20746;-76
2023/01/12 03:02:44;;;;;;;12.88;3.13;;;9.80;99.90;;;;;;5045857;28;20033;-76
2023/01/12 03:05:10;;;;;;;12.73;3.22;;;9.70;99.90;;;;;;5041695;28;20029;-76
2023/01/12 03:07:54;;;;;;;8.63;2.92;;;9.70;99.90;;;;;;5044173;28;20484;-74
2023/01/12 03:10:32;;;;;;;14.57;3.25;;;9.70;99.90;;;;;;5032634;28;20032;-75
2023/01/12 03:13:04;;;;;;;16.52;3.85;;;9.80;99.90;;;;;;5063553;28;20067;-76
2023/01/12 03:15:32;;;;;;;13.60;3.53;;;9.70;99.90;;;;;;5022150;28;20578;-76
2023/01/12 03:18:24;;;;;;;18.85;3.70;;;9.80;99.90;;;;;;5054156;28;20427;-74
2023/01/12 03:20:54;;;;;;;17.48;3.40;;;9.70;99.90;;;;;;5028229;28;20037;-76
2023/01/12 03:23:26;;;;;;;15.40;3.53;;;9.70;99.90;;;;;;5018001;28;20515;-74
2023/01/12 03:25:56;;;;;;;17.55;4.18;;;9.80;99.90;;;;;;5058224;28;20029;-74
2023/01/12 03:28:23;;;;;;;;;;;9.80;99.90;;;;;;5027245;28;20045;-76
2023/01/12 03:30:59;;;;;;;17.85;4.75;;;9.70;99.90;;;;;;5032730;28;20310;-77
2023/01/12 03:33:25;;;;;;;17.73;4.00;;;9.70;99.90;;;;;;5045713;28;20087;-75
2023/01/12 03:36:17;;;;;;;14.40;3.15;;;9.70;99.90;;;;;;5052181;28;20661;-75
2023/01/12 03:39:01;;;;;;;20.98;4.85;;;9.70;99.90;;;;;;5010717;28;20029;-74
2023/01/12 03:41:55;;;;;;;22.17;4.28;;;9.60;99.90;;;;;;5029347;28;20037;-76
2023/01/12 03:44:31;;;;;;;10.82;3.25;;;9.70;99.90;;;;;;5053956;28;20109;-75
2023/01/12 03:47:02;;;;;;;20.27;4.22;;;9.70;99.90;;;;;;5049229;28;20996;-77
2023/01/12 03:49:42;;;;;;;17.75;3.13;;;9.70;99.90;;;;;;5051435;28;20100;-76
2023/01/12 03:52:09;;;;;;;14.73;3.40;;;9.70;99.90;;;;;;5045299;28;20551;-75
2023/01/12 03:54:37;;;;;;;20.48;4.68;;;9.70;99.90;;;;;;5030431;28;20464;-74
2023/01/12 03:57:05;;;;;;;10.73;2.85;;;9.70;99.90;;;;;;5037263;28;20483;-75
2023/01/12 03:59:31;;;;;;;11.60;3.65;;;9.70;99.90;;;;;;5048409;28;20031;-75
2023/01/12 04:01:56;;;;;;;18.25;3.28;;;9.80;99.90;;;;;;5032443;28;20033;-74
2023/01/12 04:04:22;;;;;;;11.55;3.22;;;9.80;99.90;;;;;;5042870;28;20575;-77
2023/01/12 04:06:48;;;;;;;16.17;3.13;;;9.70;99.90;;;;;;5046100;28;20500;-76
2023/01/12 04:09:13;;;;;;;16.58;3.80;;;9.70;99.90;;;;;;5037188;28;20052;-73
2023/01/12 04:12:22;;;;;;;12.20;2.63;;;9.80;99.90;;;;;;5045903;28;20510;-75
2023/01/12 04:14:28;;;;;;;14.57;3.53;;;9.70;99.90;;;;;;5047181;28;20075;-74
2023/01/12 04:16:54;;;;;;;12.65;2.42;;;9.60;99.90;;;;;;5054403;28;20495;-74
2023/01/12 04:19:21;;;;;;;11.85;2.65;;;9.60;99.90;;;;;;5049681;28;20097;-75
2023/01/12 04:24:33;;;;;;;10.48;2.35;;;9.60;99.90;;;;;;5038704;28;20555;-75
2023/01/12 04:26:59;;;;;;;13.45;2.55;;;9.70;99.90;;;;;;5047018;28;20048;-74
2023/01/12 04:29:24;;;;;;;15.80;3.03;;;9.70;99.90;;;;;;5039957;28;20040;-75
2023/01/12 04:31:50;;;;;;;10.68;2.00;;;9.60;99.90;;;;;;5033263;28;20033;-75
2023/01/12 04:34:16;;;;;;;15.55;2.60;;;9.60;99.90;;;;;;5016094;28;20026;-74
2023/01/12 04:36:42;;;;;;;20.58;3.65;;;9.70;99.90;;;;;;5020133;28;20021;-75
2023/01/12 04:39:08;;;;;;;12.98;2.45;;;9.70;99.90;;;;;;5014798;28;20037;-76
2023/01/12 04:41:33;;;;;;;10.38;2.20;;;9.70;99.90;;;;;;5051220;28;20035;-74
2023/01/12 04:43:59;;;;;;;11.02;2.25;;;9.70;99.90;;;;;;5043887;28;20033;-74
2023/01/12 04:46:25;;;;;;;7.70;2.03;;;9.70;99.90;;;;;;5057572;28;20032;-76
2023/01/12 04:48:50;;;;;;;7.22;2.10;;;9.70;99.90;;;;;;5045933;28;20047;-74
2023/01/12 04:51:16;;;;;;;10.07;2.15;;;9.80;99.70;;;;;;5042618;28;20506;-75
2023/01/12 04:53:41;;;;;;;8.73;1.73;;;9.70;99.90;;;;;;5030251;28;20139;-75
2023/01/12 04:56:08;;;;;;;13.45;2.28;;;9.70;99.90;;;;;;5051749;28;20029;-75
2023/01/12 04:58:34;;;;;;;9.85;1.52;;;9.80;99.80;;;;;;5050612;28;20025;-76
2023/01/12 05:01:08;;;;;;;8.68;2.00;;;9.80;99.80;;;;;;5042052;28;20115;-74
2023/01/12 05:03:34;;;;;;;9.63;2.28;;;9.80;99.50;;;;;;5032585;28;20041;-74
2023/01/12 05:06:01;;;;;;;13.65;2.63;;;9.70;99.90;;;;;;5053186;28;20013;-74
2023/01/12 05:11:10;;;;;;;10.25;2.40;;;9.80;99.90;;;;;;5044252;28;20513;-73
2023/01/12 05:13:36;;;;;;;8.95;1.88;;;9.80;99.90;;;;;;5044162;28;20017;-74
2023/01/12 05:16:14;;;;;;;11.50;2.83;;;9.80;99.90;;;;;;5044397;28;20539;-74
2023/01/12 05:18:40;;;;;;;7.43;1.83;;;9.80;99.90;;;;;;5040822;28;20029;-74
2023/01/12 05:21:06;;;;;;;10.98;2.33;;;9.80;99.90;;;;;;5044759;28;20032;-75
2023/01/12 05:23:32;;;;;;;8.13;1.58;;;9.80;99.90;;;;;;5046039;28;20029;-77
2023/01/12 05:26:02;;;;;;;12.35;1.90;;;9.80;99.90;;;;;;5044815;28;20056;-77
2023/01/12 05:28:28;;;;;;;5.00;1.55;;;9.80;99.90;;;;;;5053784;28;20029;-74
2023/01/12 05:30:54;;;;;;;5.85;2.00;;;9.80;99.90;;;;;;5039968;28;20152;-75
2023/01/12 05:33:20;;;;;;;7.07;1.83;;;9.90;99.90;;;;;;5060722;28;20032;-75
2023/01/12 05:35:46;;;;;;;13.05;2.17;;;9.90;99.90;;;;;;5044872;28;20021;-74
2023/01/12 05:38:11;;;;;;;8.55;1.83;;;9.90;99.90;;;;;;5045235;28;20091;-75
2023/01/12 05:40:37;;;;;;;10.20;2.22;;;9.90;99.90;;;;;;5039175;28;20040;-75
2023/01/12 05:45:47;;;;;;;7.97;1.58;;;9.80;99.90;;;;;;5032655;28;20060;-76
2023/01/12 05:48:12;;;;;;;6.22;1.33;;;9.80;99.90;;;;;;5049637;28;20484;-77
2023/01/12 05:50:38;;;;;;;9.55;1.83;;;9.70;99.90;;;;;;5040826;28;20052;-76
2023/01/12 05:53:04;;;;;;;12.45;2.88;;;9.80;99.90;;;;;;5042995;28;20125;-75
2023/01/12 05:55:29;;;;;;;10.90;2.45;;;9.80;99.90;;;;;;5041169;28;20048;-75
2023/01/12 05:57:55;;;;;;;6.47;1.85;;;9.80;99.90;;;;;;5043324;28;20044;-76
2023/01/12 06:00:21;;;;;;;10.35;2.60;;;9.80;99.90;;;;;;5047824;28;20036;-76
2023/01/12 06:02:46;;;;;;;9.75;1.92;;;9.80;99.90;;;;;;5043044;28;20522;-76
2023/01/12 06:05:12;;;;;;;7.05;1.38;;;9.90;99.90;;;;;;5040725;28;20606;-74
2023/01/12 06:07:38;;;;;;;8.98;1.70;;;9.90;99.90;;;;;;5038582;28;20016;-75
2023/01/12 06:10:05;;;;;;;8.27;2.15;;;9.90;99.90;;;;;;5040518;28;20102;-76
2023/01/12 06:15:15;;;;;;;9.15;2.05;;;9.90;99.90;;;;;;5042489;28;20040;-75
2023/01/12 06:17:41;;;;;;;6.85;1.70;;;9.90;99.90;;;;;;5041383;28;20017;-75
2023/01/12 06:20:07;;;;;;;8.90;2.03;;;9.90;99.90;;;;;;5045071;28;20551;-73
2023/01/12 06:22:33;;;;;;;8.70;1.70;;;9.90;99.90;;;;;;5038988;28;20064;-75
2023/01/12 06:24:59;;;;;;;10.75;1.40;;;9.90;99.90;;;;;;5039024;28;20025;-76
2023/01/12 06:27:24;;;;;;;6.13;1.20;;;9.90;99.90;;;;;;5038193;28;20050;-75
2023/01/12 06:29:50;;;;;;;7.40;1.40;;;10.00;99.90;;;;;;5044137;28;20045;-76
2023/01/12 06:32:16;;;;;;;7.75;1.48;;;9.90;99.90;;;;;;5036611;28;20028;-74
2023/01/12 06:34:41;;;;;;;7.25;1.45;;;9.90;99.90;;;;;;5044861;28;20067;-76
2023/01/12 06:37:10;;;;;;;7.57;1.55;;;9.90;99.90;;;;;;5037584;28;20025;-76
2023/01/12 06:39:36;;;;;;;6.32;1.70;;;10.00;99.90;;;;;;5048384;28;20013;-75
2023/01/12 06:44:47;;;;;;;8.02;1.48;;;10.00;99.90;;;;;;5041284;28;20095;-76
2023/01/12 06:47:14;;;;;;;8.63;1.20;;;10.00;99.90;;;;;;5040462;28;20021;-75
2023/01/12 06:49:40;;;;;;;13.57;2.70;;;10.00;99.90;;;;;;5038012;28;20025;-76
2023/01/12 06:52:06;;;;;;;8.32;1.48;;;10.00;99.90;;;;;;5040132;28;20537;-75
2023/01/12 06:54:31;;;;;;;4.55;1.48;;;10.00;99.90;;;;;;5043687;28;20557;-76
2023/01/12 06:56:57;;;;;;;8.80;2.00;;;10.00;99.90;;;;;;5038364;28;20021;-76
2023/01/12 06:59:22;;;;;;;6.55;1.52;;;10.00;99.90;;;;;;5045947;28;20744;-76
2023/01/12 07:01:48;;;;;;;4.88;1.40;;;10.00;99.90;;;;;;5042747;28;20025;-77
2023/01/12 07:04:14;;;;;;;5.80;1.70;;;10.00;99.90;;;;;;5040044;28;20033;-77
2023/01/12 07:06:39;;;;;;;4.45;1.35;;;10.00;99.90;;;;;;5040660;28;20052;-75
2023/01/12 07:09:05;;;;;;;4.50;1.60;;;10.00;99.90;;;;;;5036087;28;20063;-75
2023/01/12 07:11:32;;;;;;;5.25;1.85;;;10.00;99.90;;;;;;5016035;28;20096;-75
2023/01/12 07:13:57;;;;;;;4.22;1.88;;;10.00;99.90;;;;;;5034834;28;20475;-76
2023/01/12 07:16:23;;;;;;;4.25;1.50;;;10.10;99.90;;;;;;5042670;28;20023;-77
2023/01/12 07:18:50;;;;;;;6.57;1.67;;;10.10;99.90;;;;;;5037737;28;20053;-74
2023/01/12 07:21:18;;;;;;;5.93;1.95;;;10.20;99.90;;;;;;5048309;28;20025;-78
2023/01/12 07:23:44;;;;;;;4.90;1.75;;;10.20;99.90;;;;;;5046036;28;20018;-75
2023/01/12 07:26:10;;;;;;;5.65;1.95;;;10.30;99.90;;;;;;5044870;28;20148;-75
2023/01/12 07:28:36;;;;;;;7.97;2.00;;;10.20;99.90;;;;;;5035114;28;20128;-77
2023/01/12 07:31:04;;;;;;;4.35;2.00;;;10.20;99.90;;;;;;5044895;28;20628;-77
2023/01/12 07:33:31;;;;;;;8.57;2.50;;;10.20;99.90;;;;;;5061621;28;20909;-78
2023/01/12 07:36:03;;;;;;;5.80;1.67;;;10.20;99.90;;;;;;5049770;28;20024;-76
2023/01/12 07:38:30;;;;;;;5.18;1.80;;;10.30;99.90;;;;;;5050929;28;20561;-77
2023/01/12 07:41:00;;;;;;;6.72;2.25;;;10.30;99.90;;;;;;5044181;28;20025;-76
2023/01/12 07:43:26;;;;;;;5.40;2.10;;;10.30;99.90;;;;;;5035857;28;20043;-76
2023/01/12 07:45:53;;;;;;;9.55;2.55;;;10.20;99.90;;;;;;5040645;28;20029;-77
2023/01/12 07:48:20;;;;;;;8.25;2.78;;;10.30;99.90;;;;;;5042132;28;20388;-77
2023/01/12 07:50:45;;;;;;;6.72;2.60;;;10.30;99.90;;;;;;5040898;28;20091;-76
2023/01/12 07:53:11;;;;;;;5.40;2.63;;;10.30;99.90;;;;;;5048231;28;20483;-77
2023/01/12 07:55:38;;;;;;;6.55;3.05;;;10.30;99.90;;;;;;5036500;28;20029;-76
2023/01/12 07:58:07;;;;;;;5.53;2.20;;;10.40;99.90;;;;;;5039476;28;20036;-78
2023/01/12 08:00:33;;;;;;;6.18;2.70;;;10.40;99.90;;;;;;5035090;28;20075;-75
2023/01/12 08:03:17;;;;;;;8.45;2.90;;;10.50;99.90;;;;;;5047012;28;20452;-74
2023/01/12 08:05:43;;;;;;;4.57;2.30;;;10.50;99.90;;;;;;5038544;28;20080;-74
2023/01/12 08:08:08;;;;;;;6.13;2.45;;;10.50;99.90;;;;;;5045779;28;20024;-74
2023/01/12 08:10:34;;;;;;;5.90;2.83;;;10.50;99.90;;;;;;5047404;28;20020;-73
2023/01/12 08:13:00;;;;;;;6.50;2.83;;;10.50;99.90;;;;;;5039646;28;20036;-75
2023/01/12 08:15:28;;;;;;;7.97;3.53;;;10.40;99.90;;;;;;5040104;28;20024;-74
2023/01/12 08:17:56;;;;;;;6.30;2.33;;;10.50;99.90;;;;;;5042237;28;20040;-75
2023/01/12 08:20:28;;;;;;;6.00;2.65;;;10.50;99.90;;;;;;5038863;28;20407;-73
2023/01/12 08:22:58;;;;;;;9.43;3.20;;;10.50;99.90;;;;;;5042016;28;20041;-72
2023/01/12 08:25:31;;;;;;;7.70;3.10;;;10.50;99.90;;;;;;5041948;28;20476;-73
2023/01/12 08:28:00;;;;;;;7.55;3.33;;;10.50;99.90;;;;;;5042344;28;20041;-74
2023/01/12 08:30:27;;;;;;;5.22;2.90;;;10.50;99.90;;;;;;5038523;28;20471;-74
2023/01/12 08:32:58;;;;;;;6.03;3.65;;;10.50;99.90;;;;;;5036080;28;20041;-74
2023/01/12 08:35:27;;;;;;;5.63;3.30;;;10.50;99.90;;;;;;5041856;28;20017;-74
2023/01/12 08:37:57;;;;;;;7.32;3.47;;;10.60;99.90;;;;;;5038405;28;20021;-72
2023/01/12 08:40:23;;;;;;;4.43;2.70;;;10.60;99.90;;;;;;5038315;28;20025;-73
2023/01/12 08:43:09;;;;;;;9.20;3.47;;;10.60;99.90;;;;;;5037621;28;20306;-73
2023/01/12 08:45:34;;;;;;;8.80;4.03;;;10.60;99.90;;;;;;5039164;28;20025;-76
2023/01/12 08:48:00;;;;;;;10.23;5.20;;;10.60;99.90;;;;;;5037239;28;20022;-76
2023/01/12 08:50:25;;;;;;;7.28;4.05;;;10.60;99.90;;;;;;5041070;28;20075;-71
2023/01/12 08:52:51;;;;;;;7.22;4.72;;;10.60;99.90;;;;;;5036476;28;20017;-73
2023/01/12 08:55:17;;;;;;;10.73;5.15;;;10.60;99.90;;;;;;5042352;28;20036;-72
2023/01/12 08:57:42;;;;;;;7.10;4.03;;;10.60;99.90;;;;;;5038287;28;20022;-72
2023/01/12 09:00:08;;;;;;;8.52;4.70;;;10.70;99.90;;;;;;5039802;28;20029;-71
2023/01/12 09:02:34;;;;;;;7.82;5.38;;;10.70;99.90;;;;;;5040354;28;20025;-71
2023/01/12 09:04:59;;;;;;;6.07;3.50;;;10.70;99.90;;;;;;5044432;28;20020;-72
2023/01/12 09:07:25;;;;;;;5.80;3.75;;;10.70;99.90;;;;;;5038833;28;20044;-73
2023/01/12 09:09:51;;;;;;;10.38;5.57;;;10.70;99.90;;;;;;5039824;28;20029;-75
2023/01/12 09:12:16;;;;;;;7.55;4.22;;;10.70;99.90;;;;;;5017781;28;20072;-71
2023/01/12 09:14:42;;;;;;;9.48;4.55;;;10.70;99.90;;;;;;5044881;28;20056;-74
2023/01/12 09:17:08;;;;;;;5.10;3.13;;;10.70;99.90;;;;;;5040441;28;20033;-71
2023/01/12 09:19:33;;;;;;;8.35;4.80;;;10.80;99.90;;;;;;5025429;28;20732;-72
2023/01/12 09:21:59;;;;;;;8.68;4.93;;;10.80;99.90;;;;;;5040945;28;20037;-73
2023/01/12 09:24:25;;;;;;;7.82;5.50;;;10.70;99.90;;;;;;5038330;28;20024;-74
2023/01/12 09:26:51;;;;;;;6.20;5.07;;;10.70;99.90;;;;;;5043552;28;20053;-73
2023/01/12 09:29:16;;;;;;;7.57;5.95;;;10.80;99.90;;;;;;5044427;28;20111;-72
2023/01/12 09:31:43;;;;;;;8.25;5.10;;;10.80;99.90;;;;;;5038294;28;20021;-73
2023/01/12 09:34:10;;;;;;;7.80;5.68;;;10.80;99.90;;;;;;5041663;28;20020;-71
2023/01/12 09:36:38;;;;;;;9.50;6.20;;;10.90;99.90;;;;;;5033629;28;20025;-72
2023/01/12 09:39:06;;;;;;;7.75;6.82;;;10.80;99.90;;;;;;5034067;28;20030;-72
2023/01/12 09:47:24;;;;;;;10.00;6.88;;;10.90;99.90;;;;;;5039681;28;20130;-72
2023/01/12 09:50:07;;;;;;;9.80;6.65;;;10.90;99.90;;;;;;5039194;28;20496;-73
2023/01/12 09:52:55;;;;;;;8.90;5.88;;;10.90;99.90;;;;;;5040892;28;20149;-73
2023/01/12 09:55:27;;;;;;;10.68;6.63;;;10.90;99.90;;;;;;5035827;28;20040;-72
2023/01/12 09:58:21;;;;;;;10.43;6.60;;;10.90;99.90;;;;;;5039845;28;20111;-72
2023/01/12 10:00:53;;;;;;;7.07;3.97;;;11.00;99.90;;;;;;5031023;28;20120;-74
2023/01/12 10:03:34;;;;;;;8.82;5.60;;;11.00;99.90;;;;;;5040254;28;20107;-73
2023/01/12 10:06:00;;;;;;;7.53;5.70;;;11.00;99.90;;;;;;5042309;28;20017;-74
2023/01/12 10:08:35;;;;;;;11.55;6.15;;;11.00;99.90;;;;;;5041121;28;20025;-72
2023/01/12 10:11:28;;;;;;;8.60;5.07;;;11.10;99.90;;;;;;5041377;28;20033;-74
2023/01/12 10:14:33;;;;;;;9.20;5.90;;;11.10;99.90;;;;;;5043438;28;20055;-74
2023/01/12 10:17:17;;;;;;;7.93;5.70;;;11.10;99.90;;;;;;5039875;28;20030;-75
2023/01/12 10:19:49;;;;;;;7.13;5.50;;;11.00;99.90;;;;;;5039499;28;20361;-75
2023/01/12 10:22:38;;;;;;;9.07;5.18;;;11.10;99.90;;;;;;5047098;28;20029;-75
2023/01/12 10:25:22;;;;;;;5.75;4.18;;;11.10;99.90;;;;;;5037717;28;20159;-75
2023/01/12 10:27:54;;;;;;;6.40;4.68;;;11.10;99.90;;;;;;5040252;28;20051;-75
2023/01/12 10:30:31;;;;;;;5.43;3.35;;;11.10;99.90;;;;;;5037657;28;20502;-75
2023/01/12 10:33:17;;;;;;;6.03;3.88;;;11.20;99.90;;;;;;5049485;28;20086;-74
2023/01/12 10:35:53;;;;;;;5.70;4.43;;;11.10;99.90;;;;;;5039230;28;20028;-74
2023/01/12 10:38:37;;;;;;;5.38;3.67;;;11.20;99.90;;;;;;5047374;28;20905;-74
2023/01/12 10:41:21;;;;;;;8.20;3.35;;;11.10;99.90;;;;;;5040420;28;20484;-74
2023/01/12 10:43:58;;;;;;;6.22;3.58;;;11.20;99.90;;;;;;5046702;28;20118;-74
2023/01/12 10:46:31;;;;;;;5.20;3.42;;;11.20;99.90;;;;;;5042179;28;20029;-74
2023/01/12 10:49:18;;;;;;;5.57;3.75;;;11.20;99.90;;;;;;5040193;28;20017;-73
2023/01/12 10:51:51;;;;;;;7.45;3.38;;;11.20;99.90;;;;;;5043306;28;20016;-74
2023/01/12 10:54:19;;;;;;;6.63;3.50;;;11.20;99.90;;;;;;5048448;28;20059;-73
2023/01/12 10:56:56;;;;;;;4.93;3.38;;;11.30;99.90;;;;;;5040808;28;20845;-74
2023/01/12 10:59:27;;;;;;;4.00;2.50;;;11.30;99.90;;;;;;5028092;28;20024;-74
2023/01/12 11:02:10;;;;;;;7.20;3.83;;;11.30;99.90;;;;;;5041191;28;20033;-75
2023/01/12 11:04:41;;;;;;;4.30;2.45;;;11.20;99.90;;;;;;5047139;28;20025;-74
2023/01/12 11:07:09;;;;;;;6.20;3.50;;;11.30;99.90;;;;;;5041954;28;20029;-74
2023/01/12 11:09:35;;;;;;;4.88;3.40;;;11.30;99.90;;;;;;5045084;28;20025;-75
2023/01/12 11:12:05;;;;;;;4.43;2.88;;;11.30;99.90;;;;;;5028774;28;20040;-75
2023/01/12 11:14:38;;;;;;;4.57;3.20;;;11.30;99.90;;;;;;5048211;28;20557;-75
2023/01/12 11:17:23;;;;;;;3.75;2.42;;;11.40;99.90;;;;;;5019226;28;20029;-75
2023/01/12 11:19:53;;;;;;;5.35;2.72;;;11.40;99.90;;;;;;5040854;28;20021;-75
2023/01/12 11:22:26;;;;;;;5.07;2.70;;;11.40;99.90;;;;;;5036869;28;20132;-74
2023/01/12 11:25:23;;;;;;;4.90;2.90;;;11.40;99.90;;;;;;5048944;28;20017;-72
2023/01/12 11:28:07;;;;;;;7.10;3.53;;;11.40;99.90;;;;;;5030274;28;20414;-73
2023/01/12 11:30:43;;;;;;;3.58;2.05;;;11.50;99.90;;;;;;5040492;28;20025;-75
2023/01/12 11:33:15;;;;;;;4.53;3.13;;;11.50;99.90;;;;;;5037757;28;20024;-73
2023/01/12 11:35:53;;;;;;;4.45;3.03;;;11.50;99.90;;;;;;5041178;28;20017;-75
2023/01/12 11:38:49;;;;;;;5.60;4.22;;;11.50;99.90;;;;;;5037846;28;20059;-74
2023/01/12 11:41:28;;;;;;;4.10;2.97;;;11.50;99.90;;;;;;5031565;28;20490;-75
2023/01/12 11:44:04;;;;;;;4.43;2.95;;;11.50;99.90;;;;;;5035837;28;20131;-73
2023/01/12 11:46:41;;;;;;;5.80;4.10;;;11.60;99.90;;;;;;5037223;28;20036;-74
2023/01/12 11:49:26;;;;;;;7.53;3.95;;;11.50;99.90;;;;;;5036171;28;20111;-74
2023/01/12 11:51:57;;;;;;;5.90;4.18;;;11.50;99.90;;;;;;5042869;28;20839;-75
2023/01/12 11:54:26;;;;;;;6.90;4.80;;;11.60;99.90;;;;;;5048175;28;20012;-75
2023/01/12 11:57:10;;;;;;;6.82;4.60;;;11.50;99.90;;;;;;5043192;28;20017;-74
2023/01/12 11:59:54;;;;;;;7.07;4.03;;;11.50;99.90;;;;;;5021377;28;20557;-73
2023/01/12 12:02:27;;;;;;;5.53;3.72;;;11.50;99.90;;;;;;5039787;28;20036;-75
2023/01/12 12:05:18;;;;;;;5.70;3.90;;;11.50;99.90;;;;;;5046128;28;20032;-75
2023/01/12 12:07:54;;;;;;;5.57;3.97;;;11.50;99.90;;;;;;5039279;28;20075;-74
2023/01/12 12:10:36;;;;;;;6.97;4.22;;;11.50;99.90;;;;;;5041162;28;20040;-76
2023/01/12 12:13:10;;;;;;;4.15;3.13;;;11.50;99.90;;;;;;5039209;28;20156;-74
2023/01/12 12:15:40;;;;;;;4.75;3.80;;;11.50;99.90;;;;;;5045731;28;20021;-75
2023/01/12 12:18:17;;;;;;;4.43;3.40;;;11.50;99.90;;;;;;5043083;28;20392;-76
2023/01/12 12:21:03;;;;;;;4.47;2.50;;;11.50;99.90;;;;;;5044491;28;20038;-75
2023/01/12 12:23:39;;;;;;;5.30;3.30;;;11.60;99.90;;;;;;5041624;28;20045;-74
2023/01/12 12:26:31;;;;;;;4.22;3.38;;;11.60;99.90;;;;;;5036800;28;20037;-73
2023/01/12 12:29:07;;;;;;;5.85;4.18;;;11.60;99.90;;;;;;5020051;28;20051;-74
2023/01/12 12:31:52;;;;;;;5.80;4.63;;;11.70;99.90;;;;;;5044711;28;20028;-74
2023/01/12 12:34:49;;;;;;;3.83;2.60;;;11.60;99.90;;;;;;5019607;28;20029;-75
2023/01/12 12:37:26;;;;;;;3.38;2.67;;;11.60;99.90;;;;;;5048802;28;20036;-74
2023/01/12 12:40:19;;;;;;;4.15;3.25;;;11.60;99.90;;;;;;5039656;28;20033;-75
2023/01/12 12:46:12;;;;;;;3.30;2.38;;;11.60;99.90;;;;;;5040555;28;20533;-74
2023/01/12 12:48:37;;;;;;;4.88;2.90;;;11.60;99.90;;;;;;5039901;28;20021;-74
2023/01/12 12:51:07;;;;;;;3.95;1.70;;;11.60;99.90;;;;;;5041138;28;20126;-73
2023/01/12 12:53:42;;;;;;;3.75;2.60;;;11.60;99.90;;;;;;5027675;28;20036;-75
2023/01/12 12:56:19;;;;;;;4.55;2.70;;;11.60;99.90;;;;;;5047661;28;20040;-75
2023/01/12 12:58:53;;;;;;;4.78;3.17;;;11.60;99.90;;;;;;5042452;28;20430;-74
2023/01/12 13:01:18;;;;;;;7.22;4.45;;;11.60;99.90;;;;;;5038145;28;20312;-76
2023/01/12 13:03:47;;;;;;;5.38;3.05;;;11.60;99.90;;;;;;5046415;28;20037;-75
2023/01/12 13:06:24;;;;;;;5.10;3.40;;;11.60;99.90;;;;;;5044037;28;20403;-75
2023/01/12 13:08:52;;;;;;;6.97;3.03;;;11.70;99.90;;;;;;5051508;28;20022;-74
2023/01/12 13:11:18;;;;;;;3.42;2.00;;;11.60;99.90;;;;;;5042628;28;20025;-75
2023/01/12 13:14:00;;;;;;;3.63;2.10;;;11.60;99.90;;;;;;5048252;28;20128;-74
2023/01/12 13:16:28;;;;;;;3.95;2.40;;;11.60;99.90;;;;;;5044783;28;20546;-76
2023/01/12 13:18:54;;;;;;;2.92;2.05;;;11.60;99.90;;;;;;5048383;28;20049;-74
2023/01/12 13:21:30;;;;;;;3.03;1.83;;;11.60;99.90;;;;;;5035003;28;20045;-77
2023/01/12 13:24:08;;;;;;;4.47;2.28;;;11.60;99.90;;;;;;5040778;28;20033;-75
2023/01/12 13:26:33;;;;;;;4.07;2.67;;;11.60;99.90;;;;;;5039934;28;20714;-73
2023/01/12 13:29:27;;;;;;;3.28;2.13;;;11.60;99.90;;;;;;5049091;28;20032;-77
2023/01/12 13:32:21;;;;;;;4.88;2.88;;;11.60;99.90;;;;;;5042068;28;20021;-76
2023/01/12 13:34:48;;;;;;;4.35;3.05;;;11.60;99.90;;;;;;5040852;28;20392;-77
2023/01/12 13:37:35;;;;;;;5.32;3.75;;;11.60;99.90;;;;;;5042629;28;20103;-73
2023/01/12 13:40:14;;;;;;;6.07;4.10;;;11.50;99.90;;;;;;5053111;28;20025;-75
2023/01/12 13:45:24;;;;;;;5.68;3.55;;;11.60;99.90;;;;;;5041423;28;20044;-75
2023/01/12 13:47:51;;;;;;;4.13;2.58;;;11.50;99.90;;;;;;5047070;28;20013;-76
2023/01/12 13:50:23;;;;;;;4.72;2.53;;;11.50;99.90;;;;;;5042139;28;20162;-73
2023/01/12 13:53:00;;;;;;;3.22;2.20;;;11.50;99.90;;;;;;5035235;28;20025;-73